sensor_id;sensor_type;location;lat;lon;timestamp;pressure;altitude;pressure_sealevel;temperature;humidity
53960;BME280;39866;48.638;-2.020;2023-02-10T00:00:07;103599.53;;;13.80;59.54
53960;BME280;39866;48.638;-2.020;2023-02-10T00:02:32;103603.06;;;13.73;59.55
53960;BME280;39866;48.638;-2.020;2023-02-10T00:04:58;103597.72;;;13.72;59.75
53960;BME280;39866;48.638;-2.020;2023-02-10T00:07:23;103603.97;;;13.75;59.59
53960;BME280;39866;48.638;-2.020;2023-02-10T00:09:49;103600.38;;;13.75;59.65
53960;BME280;39866;48.638;-2.020;2023-02-10T00:12:15;103601.28;;;13.75;59.83
53960;BME280;39866;48.638;-2.020;2023-02-10T00:14:41;103604.88;;;13.77;59.75
53960;BME280;39866;48.638;-2.020;2023-02-10T00:17:07;103595.94;;;13.78;59.56
53960;BME280;39866;48.638;-2.020;2023-02-10T00:19:32;103602.19;;;13.79;59.69
53960;BME280;39866;48.638;-2.020;2023-02-10T00:21:59;103595.97;;;13.81;59.81
53960;BME280;39866;48.638;-2.020;2023-02-10T00:24:25;103601.31;;;13.80;59.58
53960;BME280;39866;48.638;-2.020;2023-02-10T00:26:50;103595.97;;;13.80;59.82
53960;BME280;39866;48.638;-2.020;2023-02-10T00:29:16;103597.75;;;13.76;59.43
53960;BME280;39866;48.638;-2.020;2023-02-10T00:31:42;103602.19;;;13.77;59.81
53960;BME280;39866;48.638;-2.020;2023-02-10T00:34:13;103600.41;;;13.73;59.70
53960;BME280;39866;48.638;-2.020;2023-02-10T00:36:39;103600.38;;;13.70;59.78
53960;BME280;39866;48.638;-2.020;2023-02-10T00:39:05;103602.16;;;13.71;59.99
53960;BME280;39866;48.638;-2.020;2023-02-10T00:41:30;103593.25;;;13.75;59.80
53960;BME280;39866;48.638;-2.020;2023-02-10T00:43:55;103593.25;;;13.75;60.10
53960;BME280;39866;48.638;-2.020;2023-02-10T00:46:21;103590.56;;;13.75;60.05
53960;BME280;39866;48.638;-2.020;2023-02-10T00:48:47;103592.28;;;13.55;60.88
53960;BME280;39866;48.638;-2.020;2023-02-10T00:51:13;103587.84;;;13.57;61.10
53960;BME280;39866;48.638;-2.020;2023-02-10T00:53:39;103594.97;;;13.52;61.06
53960;BME280;39866;48.638;-2.020;2023-02-10T00:56:05;103590.50;;;13.52;61.42
53960;BME280;39866;48.638;-2.020;2023-02-10T00:58:30;103586.09;;;13.65;61.08
53960;BME280;39866;48.638;-2.020;2023-02-10T01:00:56;103587.88;;;13.66;60.48
53960;BME280;39866;48.638;-2.020;2023-02-10T01:03:22;103587.00;;;13.69;60.37
53960;BME280;39866;48.638;-2.020;2023-02-10T01:05:48;103585.22;;;13.71;60.19
53960;BME280;39866;48.638;-2.020;2023-02-10T01:08:16;103582.56;;;13.72;60.37
53960;BME280;39866;48.638;-2.020;2023-02-10T01:10:42;103581.63;;;13.67;60.24
53960;BME280;39866;48.638;-2.020;2023-02-10T01:13:08;103578.97;;;13.70;60.39
53960;BME280;39866;48.638;-2.020;2023-02-10T01:15:34;103580.75;;;13.74;60.06
53960;BME280;39866;48.638;-2.020;2023-02-10T01:18:00;103569.97;;;13.53;60.51
53960;BME280;39866;48.638;-2.020;2023-02-10T01:20:25;103585.22;;;13.71;60.26
53960;BME280;39866;48.638;-2.020;2023-02-10T01:22:51;103593.22;;;13.66;60.34
53960;BME280;39866;48.638;-2.020;2023-02-10T01:25:17;103589.66;;;13.61;60.33
53960;BME280;39866;48.638;-2.020;2023-02-10T01:27:42;103595.00;;;13.61;60.71
53960;BME280;39866;48.638;-2.020;2023-02-10T01:30:08;103577.16;;;13.61;60.28
53960;BME280;39866;48.638;-2.020;2023-02-10T01:32:33;103595.88;;;13.58;60.45
53960;BME280;39866;48.638;-2.020;2023-02-10T01:34:59;103590.56;;;13.69;60.23
53960;BME280;39866;48.638;-2.020;2023-02-10T01:37:24;103593.22;;;13.71;60.36
53960;BME280;39866;48.638;-2.020;2023-02-10T01:39:50;103591.44;;;13.71;59.99
53960;BME280;39866;48.638;-2.020;2023-02-10T01:42:16;103597.72;;;13.72;60.04
53960;BME280;39866;48.638;-2.020;2023-02-10T01:47:07;103591.50;;;13.76;59.95
53960;BME280;39866;48.638;-2.020;2023-02-10T01:49:35;103590.59;;;13.81;59.83
53960;BME280;39866;48.638;-2.020;2023-02-10T01:52:12;103593.28;;;13.78;60.06
53960;BME280;39866;48.638;-2.020;2023-02-10T01:54:45;103591.47;;;13.79;60.04
53960;BME280;39866;48.638;-2.020;2023-02-10T01:57:12;103589.69;;;13.78;60.14
53960;BME280;39866;48.638;-2.020;2023-02-10T01:59:39;103589.69;;;13.79;60.13
53960;BME280;39866;48.638;-2.020;2023-02-10T02:02:07;103595.03;;;13.75;60.23
53960;BME280;39866;48.638;-2.020;2023-02-10T02:04:35;103592.38;;;13.72;60.35
53960;BME280;39866;48.638;-2.020;2023-02-10T02:07:03;103594.16;;;13.74;60.42
53960;BME280;39866;48.638;-2.020;2023-02-10T02:09:28;103595.03;;;13.73;60.45
53960;BME280;39866;48.638;-2.020;2023-02-10T02:14:53;103582.56;;;13.72;60.78
53960;BME280;39866;48.638;-2.020;2023-02-10T02:17:39;103583.41;;;13.67;61.00
53960;BME280;39866;48.638;-2.020;2023-02-10T02:20:29;103587.88;;;13.66;61.32
53960;BME280;39866;48.638;-2.020;2023-02-10T02:28:50;103579.53;;;13.08;66.02
53960;BME280;39866;48.638;-2.020;2023-02-10T02:37:09;103579.75;;;13.42;64.72
53960;BME280;39866;48.638;-2.020;2023-02-10T02:39:36;103577.97;;;13.41;64.86
53960;BME280;39866;48.638;-2.020;2023-02-10T02:44:32;103576.22;;;13.47;64.70
53960;BME280;39866;48.638;-2.020;2023-02-10T02:47:09;103573.53;;;13.49;64.33
53960;BME280;39866;48.638;-2.020;2023-02-10T02:50:11;103569.06;;;13.45;64.66
53960;BME280;39866;48.638;-2.020;2023-02-10T02:52:57;103561.94;;;13.48;64.73
53960;BME280;39866;48.638;-2.020;2023-02-10T02:55:41;103560.16;;;13.52;64.58
53960;BME280;39866;48.638;-2.020;2023-02-10T02:58:20;103552.09;;;13.46;64.90
53960;BME280;39866;48.638;-2.020;2023-02-10T03:00:48;103564.59;;;13.47;64.93
53960;BME280;39866;48.638;-2.020;2023-02-10T03:03:15;103560.16;;;13.50;65.12
53960;BME280;39866;48.638;-2.020;2023-02-10T03:05:41;103559.28;;;13.53;64.71
53960;BME280;39866;48.638;-2.020;2023-02-10T03:08:06;103553.91;;;13.50;64.97
53960;BME280;39866;48.638;-2.020;2023-02-10T03:10:32;103557.47;;;13.49;65.04
53960;BME280;39866;48.638;-2.020;2023-02-10T03:12:57;103555.69;;;13.52;65.04
53960;BME280;39866;48.638;-2.020;2023-02-10T03:15:22;103553.94;;;13.51;65.05
53960;BME280;39866;48.638;-2.020;2023-02-10T03:17:48;103553.06;;;13.61;65.00
53960;BME280;39866;48.638;-2.020;2023-02-10T03:20:14;103541.47;;;13.66;64.93
53960;BME280;39866;48.638;-2.020;2023-02-10T03:22:41;103549.50;;;13.70;64.79
53960;BME280;39866;48.638;-2.020;2023-02-10T03:25:06;103548.63;;;13.74;64.65
53960;BME280;39866;48.638;-2.020;2023-02-10T03:27:32;103546.84;;;13.73;64.50
53960;BME280;39866;48.638;-2.020;2023-02-10T03:29:57;103554.88;;;13.75;64.39
53960;BME280;39866;48.638;-2.020;2023-02-10T03:32:22;103547.72;;;13.69;64.60
53960;BME280;39866;48.638;-2.020;2023-02-10T03:34:48;103546.84;;;13.69;64.50
53960;BME280;39866;48.638;-2.020;2023-02-10T03:37:13;103535.22;;;13.67;64.67
53960;BME280;39866;48.638;-2.020;2023-02-10T03:39:38;103545.94;;;13.68;64.67
53960;BME280;39866;48.638;-2.020;2023-02-10T03:42:04;103546.81;;;13.67;64.91
53960;BME280;39866;48.638;-2.020;2023-02-10T03:44:30;103550.38;;;13.57;65.14
53960;BME280;39866;48.638;-2.020;2023-02-10T03:46:55;103550.34;;;13.52;65.38
53960;BME280;39866;48.638;-2.020;2023-02-10T03:49:21;103545.00;;;13.54;65.40
53960;BME280;39866;48.638;-2.020;2023-02-10T03:51:46;103550.38;;;13.57;65.37
53960;BME280;39866;48.638;-2.020;2023-02-10T03:54:12;103548.53;;;13.47;65.44
53960;BME280;39866;48.638;-2.020;2023-02-10T03:56:37;103551.25;;;13.53;65.44
53960;BME280;39866;48.638;-2.020;2023-02-10T03:59:04;103550.34;;;13.54;65.52
53960;BME280;39866;48.638;-2.020;2023-02-10T04:01:29;103552.16;;;13.67;65.12
53960;BME280;39866;48.638;-2.020;2023-02-10T04:03:55;103557.47;;;13.49;65.05
53960;BME280;39866;48.638;-2.020;2023-02-10T04:06:20;103561.06;;;13.55;65.28
53960;BME280;39866;48.638;-2.020;2023-02-10T04:08:47;103564.66;;;13.56;65.25
53960;BME280;39866;48.638;-2.020;2023-02-10T04:11:12;103560.13;;;13.44;65.10
53960;BME280;39866;48.638;-2.020;2023-02-10T04:13:38;103564.63;;;13.57;65.34
53960;BME280;39866;48.638;-2.020;2023-02-10T04:16:06;103568.13;;;13.36;65.50
53960;BME280;39866;48.638;-2.020;2023-02-10T04:18:32;103559.22;;;13.47;65.29
53960;BME280;39866;48.638;-2.020;2023-02-10T04:20:58;103568.13;;;13.43;65.33
53960;BME280;39866;48.638;-2.020;2023-02-10T04:23:26;103569.97;;;13.53;65.40
53960;BME280;39866;48.638;-2.020;2023-02-10T04:25:51;103570.88;;;13.56;65.02
53960;BME280;39866;48.638;-2.020;2023-02-10T04:28:17;103568.22;;;13.58;65.10
53960;BME280;39866;48.638;-2.020;2023-02-10T04:30:42;103566.44;;;13.57;64.99
53960;BME280;39866;48.638;-2.020;2023-02-10T04:33:07;103566.44;;;13.57;65.20
53960;BME280;39866;48.638;-2.020;2023-02-10T04:35:33;103561.09;;;13.65;64.82
53960;BME280;39866;48.638;-2.020;2023-02-10T04:37:58;103564.69;;;13.63;64.94
53960;BME280;39866;48.638;-2.020;2023-02-10T04:40:24;103568.25;;;13.64;64.59
53960;BME280;39866;48.638;-2.020;2023-02-10T04:42:50;103567.31;;;13.57;64.83
53960;BME280;39866;48.638;-2.020;2023-02-10T04:45:15;103564.53;;;13.34;65.29
53960;BME280;39866;48.638;-2.020;2023-02-10T04:47:40;103577.91;;;13.33;65.74
53960;BME280;39866;48.638;-2.020;2023-02-10T04:50:06;103572.56;;;13.31;66.06
53960;BME280;39866;48.638;-2.020;2023-02-10T04:52:31;103576.13;;;13.27;66.03
53960;BME280;39866;48.638;-2.020;2023-02-10T04:54:57;103576.97;;;13.23;66.00
53960;BME280;39866;48.638;-2.020;2023-02-10T04:57:22;103576.09;;;13.23;66.00
53960;BME280;39866;48.638;-2.020;2023-02-10T04:59:47;103572.47;;;13.19;66.04
53960;BME280;39866;48.638;-2.020;2023-02-10T05:02:13;103577.06;;;13.42;65.47
53960;BME280;39866;48.638;-2.020;2023-02-10T05:04:38;103574.41;;;13.43;65.25
53960;BME280;39866;48.638;-2.020;2023-02-10T05:07:04;103581.56;;;13.47;65.37
53960;BME280;39866;48.638;-2.020;2023-02-10T05:09:29;103586.91;;;13.44;64.99
53960;BME280;39866;48.638;-2.020;2023-02-10T05:11:54;103587.78;;;13.46;65.22
53960;BME280;39866;48.638;-2.020;2023-02-10T05:14:20;103594.03;;;13.44;65.11
53960;BME280;39866;48.638;-2.020;2023-02-10T05:16:45;103593.09;;;13.35;64.97
53960;BME280;39866;48.638;-2.020;2023-02-10T05:19:10;103602.03;;;13.41;64.96
53960;BME280;39866;48.638;-2.020;2023-02-10T05:21:36;103594.91;;;13.40;65.05
53960;BME280;39866;48.638;-2.020;2023-02-10T05:24:01;103607.34;;;13.34;65.12
53960;BME280;39866;48.638;-2.020;2023-02-10T05:26:27;103602.84;;;13.24;65.52
53960;BME280;39866;48.638;-2.020;2023-02-10T05:28:52;103605.53;;;13.30;65.53
53960;BME280;39866;48.638;-2.020;2023-02-10T05:31:18;103607.34;;;13.34;65.44
53960;BME280;39866;48.638;-2.020;2023-02-10T05:33:43;103612.72;;;13.33;65.35
53960;BME280;39866;48.638;-2.020;2023-02-10T05:36:08;103616.31;;;13.41;65.12
53960;BME280;39866;48.638;-2.020;2023-02-10T05:38:34;103619.03;;;13.44;65.06
53960;BME280;39866;48.638;-2.020;2023-02-10T05:40:59;103627.03;;;13.40;64.91
53960;BME280;39866;48.638;-2.020;2023-02-10T05:43:25;103629.72;;;13.46;64.89
53960;BME280;39866;48.638;-2.020;2023-02-10T05:45:50;103628.81;;;13.41;65.05
53960;BME280;39866;48.638;-2.020;2023-02-10T05:48:15;103631.47;;;13.41;65.08
53960;BME280;39866;48.638;-2.020;2023-02-10T05:50:41;103627.91;;;13.35;65.28
53960;BME280;39866;48.638;-2.020;2023-02-10T05:53:07;103628.72;;;13.30;65.33
53960;BME280;39866;48.638;-2.020;2023-02-10T05:55:32;103626.94;;;13.30;65.30
53960;BME280;39866;48.638;-2.020;2023-02-10T05:57:57;103637.63;;;13.26;65.39
53960;BME280;39866;48.638;-2.020;2023-02-10T06:00:23;103633.22;;;13.31;65.55
53960;BME280;39866;48.638;-2.020;2023-02-10T06:02:49;103637.66;;;13.30;65.69
53960;BME280;39866;48.638;-2.020;2023-02-10T06:05:15;103638.56;;;13.34;65.61
53960;BME280;39866;48.638;-2.020;2023-02-10T06:07:40;103635.91;;;13.32;65.75
53960;BME280;39866;48.638;-2.020;2023-02-10T06:10:06;103625.22;;;13.37;65.35
53960;BME280;39866;48.638;-2.020;2023-02-10T06:12:31;103625.25;;;13.42;65.30
53960;BME280;39866;48.638;-2.020;2023-02-10T06:14:57;103633.25;;;13.42;65.38
53960;BME280;39866;48.638;-2.020;2023-02-10T06:17:22;103635.97;;;13.43;65.26
53960;BME280;39866;48.638;-2.020;2023-02-10T06:19:48;103639.53;;;13.44;65.29
53960;BME280;39866;48.638;-2.020;2023-02-10T06:22:13;103637.72;;;13.43;65.13
53960;BME280;39866;48.638;-2.020;2023-02-10T06:24:39;103643.16;;;13.52;64.96
53960;BME280;39866;48.638;-2.020;2023-02-10T06:27:04;103647.56;;;13.45;65.09
53960;BME280;39866;48.638;-2.020;2023-02-10T06:29:30;103652.03;;;13.45;65.15
53960;BME280;39866;48.638;-2.020;2023-02-10T06:31:55;103648.47;;;13.50;65.32
53960;BME280;39866;48.638;-2.020;2023-02-10T06:34:21;103653.81;;;13.46;65.13
53960;BME280;39866;48.638;-2.020;2023-02-10T06:36:46;103651.13;;;13.40;65.63
53960;BME280;39866;48.638;-2.020;2023-02-10T06:39:11;103655.56;;;13.41;65.32
53960;BME280;39866;48.638;-2.020;2023-02-10T06:41:37;103657.34;;;13.35;65.77
53960;BME280;39866;48.638;-2.020;2023-02-10T06:44:02;103647.50;;;13.33;65.65
53960;BME280;39866;48.638;-2.020;2023-02-10T06:46:28;103657.34;;;13.40;65.57
53960;BME280;39866;48.638;-2.020;2023-02-10T06:48:53;103653.81;;;13.44;65.24
53960;BME280;39866;48.638;-2.020;2023-02-10T06:51:19;103652.91;;;13.41;65.37
53960;BME280;39866;48.638;-2.020;2023-02-10T06:53:44;103654.63;;;13.34;65.66
53960;BME280;39866;48.638;-2.020;2023-02-10T06:56:11;103660.88;;;13.33;65.38
53960;BME280;39866;48.638;-2.020;2023-02-10T06:58:37;103657.34;;;13.38;65.60
53960;BME280;39866;48.638;-2.020;2023-02-10T07:01:10;103650.16;;;13.33;65.42
53960;BME280;39866;48.638;-2.020;2023-02-10T07:03:36;103662.69;;;13.37;65.20
53960;BME280;39866;48.638;-2.020;2023-02-10T07:06:02;103663.56;;;13.36;65.14
53960;BME280;39866;48.638;-2.020;2023-02-10T07:08:27;103668.03;;;13.35;65.40
53960;BME280;39866;48.638;-2.020;2023-02-10T07:10:53;103665.34;;;13.38;65.19
53960;BME280;39866;48.638;-2.020;2023-02-10T07:13:18;103661.81;;;13.41;65.42
53960;BME280;39866;48.638;-2.020;2023-02-10T07:15:44;103667.19;;;13.46;65.24
53960;BME280;39866;48.638;-2.020;2023-02-10T07:18:09;103670.78;;;13.48;65.25
53960;BME280;39866;48.638;-2.020;2023-02-10T07:20:34;103667.22;;;13.47;65.23
53960;BME280;39866;48.638;-2.020;2023-02-10T07:23:00;103673.41;;;13.40;65.26
53960;BME280;39866;48.638;-2.020;2023-02-10T07:25:25;103669.84;;;13.40;65.38
53960;BME280;39866;48.638;-2.020;2023-02-10T07:27:50;103661.88;;;13.47;65.21
53960;BME280;39866;48.638;-2.020;2023-02-10T07:30:16;103680.56;;;13.40;65.32
53960;BME280;39866;48.638;-2.020;2023-02-10T07:32:41;103681.41;;;13.38;65.16
53960;BME280;39866;48.638;-2.020;2023-02-10T07:35:08;103670.63;;;13.26;65.19
53960;BME280;39866;48.638;-2.020;2023-02-10T07:37:34;103679.59;;;13.31;65.08
53960;BME280;39866;48.638;-2.020;2023-02-10T07:39:59;103660.84;;;13.27;65.19
53960;BME280;39866;48.638;-2.020;2023-02-10T07:42:25;103685.00;;;13.41;64.77
53960;BME280;39866;48.638;-2.020;2023-02-10T07:44:50;103683.19;;;13.33;65.22
53960;BME280;39866;48.638;-2.020;2023-02-10T07:47:16;103689.44;;;13.38;65.00
53960;BME280;39866;48.638;-2.020;2023-02-10T07:49:41;103688.59;;;13.43;65.08
53960;BME280;39866;48.638;-2.020;2023-02-10T07:52:06;103691.06;;;13.17;64.92
53960;BME280;39866;48.638;-2.020;2023-02-10T07:54:32;103701.88;;;13.30;64.71
53960;BME280;39866;48.638;-2.020;2023-02-10T07:56:57;103699.25;;;13.35;64.86
53960;BME280;39866;48.638;-2.020;2023-02-10T07:59:23;103705.53;;;13.40;64.55
53960;BME280;39866;48.638;-2.020;2023-02-10T08:01:48;103704.59;;;13.33;64.67
53960;BME280;39866;48.638;-2.020;2023-02-10T08:04:14;103708.16;;;13.32;64.75
53960;BME280;39866;48.638;-2.020;2023-02-10T08:06:39;103703.69;;;13.31;64.70
53960;BME280;39866;48.638;-2.020;2023-02-10T08:09:06;103707.28;;;13.36;64.94
53960;BME280;39866;48.638;-2.020;2023-02-10T08:11:32;103712.66;;;13.41;64.55
53960;BME280;39866;48.638;-2.020;2023-02-10T08:13:57;103710.00;;;13.40;64.67
53960;BME280;39866;48.638;-2.020;2023-02-10T08:16:22;103710.72;;;13.20;64.60
53960;BME280;39866;48.638;-2.020;2023-02-10T08:18:48;103712.63;;;13.33;64.52
53960;BME280;39866;48.638;-2.020;2023-02-10T08:21:13;103711.72;;;13.34;64.57
53960;BME280;39866;48.638;-2.020;2023-02-10T08:23:38;103721.56;;;13.38;64.51
53960;BME280;39866;48.638;-2.020;2023-02-10T08:26:13;103721.59;;;13.42;64.33
53960;BME280;39866;48.638;-2.020;2023-02-10T08:28:39;103719.81;;;13.41;64.19
53960;BME280;39866;48.638;-2.020;2023-02-10T08:31:07;103725.19;;;13.45;64.25
53960;BME280;39866;48.638;-2.020;2023-02-10T08:33:37;103728.78;;;13.49;64.01
53960;BME280;39866;48.638;-2.020;2023-02-10T08:36:04;103722.47;;;13.36;64.04
53960;BME280;39866;48.638;-2.020;2023-02-10T08:38:30;103735.03;;;13.48;63.97
53960;BME280;39866;48.638;-2.020;2023-02-10T08:40:56;103733.28;;;13.54;63.99
53960;BME280;39866;48.638;-2.020;2023-02-10T08:43:22;103728.81;;;13.55;64.03
53960;BME280;39866;48.638;-2.020;2023-02-10T08:45:47;103732.28;;;13.35;63.81
53960;BME280;39866;48.638;-2.020;2023-02-10T08:48:13;103728.78;;;13.49;63.97
53960;BME280;39866;48.638;-2.020;2023-02-10T08:50:38;103733.28;;;13.53;63.94
53960;BME280;39866;48.638;-2.020;2023-02-10T08:53:03;103733.16;;;13.37;63.94
53960;BME280;39866;48.638;-2.020;2023-02-10T08:55:29;103739.47;;;13.46;63.93
53960;BME280;39866;48.638;-2.020;2023-02-10T08:57:54;103728.75;;;13.46;63.84
53960;BME280;39866;48.638;-2.020;2023-02-10T09:00:19;103728.72;;;13.43;63.59
53960;BME280;39866;48.638;-2.020;2023-02-10T09:02:48;103733.22;;;13.47;63.68
53960;BME280;39866;48.638;-2.020;2023-02-10T09:05:14;103743.09;;;13.54;63.51
53960;BME280;39866;48.638;-2.020;2023-02-10T09:07:39;103735.94;;;13.53;63.68
53960;BME280;39866;48.638;-2.020;2023-02-10T09:10:06;103742.25;;;13.61;63.30
53960;BME280;39866;48.638;-2.020;2023-02-10T09:12:35;103738.72;;;13.65;63.36
53960;BME280;39866;48.638;-2.020;2023-02-10T09:15:00;103745.88;;;13.68;63.19
53960;BME280;39866;48.638;-2.020;2023-02-10T09:17:25;103740.53;;;13.68;62.87
53960;BME280;39866;48.638;-2.020;2023-02-10T09:19:51;103740.53;;;13.68;63.18
53960;BME280;39866;48.638;-2.020;2023-02-10T09:22:16;103744.94;;;13.66;63.39
53960;BME280;39866;48.638;-2.020;2023-02-10T09:24:42;103735.19;;;13.74;63.42
53960;BME280;39866;48.638;-2.020;2023-02-10T09:27:11;103733.38;;;13.68;63.27
53960;BME280;39866;48.638;-2.020;2023-02-10T09:29:37;103735.22;;;13.81;62.97
53960;BME280;39866;48.638;-2.020;2023-02-10T09:32:02;103730.84;;;13.93;62.72
53960;BME280;39866;48.638;-2.020;2023-02-10T09:34:28;103737.13;;;14.01;62.56
53960;BME280;39866;48.638;-2.020;2023-02-10T09:36:55;103740.69;;;14.03;62.80
53960;BME280;39866;48.638;-2.020;2023-02-10T09:39:22;103733.53;;;14.03;62.65
53960;BME280;39866;48.638;-2.020;2023-02-10T09:42:09;103742.50;;;14.11;62.24
53960;BME280;39866;48.638;-2.020;2023-02-10T09:44:42;103737.16;;;14.08;62.44
53960;BME280;39866;48.638;-2.020;2023-02-10T09:55:33;103747.94;;;14.28;61.82
53960;BME280;39866;48.638;-2.020;2023-02-10T09:58:14;103747.03;;;14.32;61.77
53960;BME280;39866;48.638;-2.020;2023-02-10T10:00:43;103741.69;;;14.32;61.78
53960;BME280;39866;48.638;-2.020;2023-02-10T10:03:15;103748.88;;;14.44;61.32
53960;BME280;39866;48.638;-2.020;2023-02-10T10:06:07;103750.66;;;14.44;61.21
53960;BME280;39866;48.638;-2.020;2023-02-10T10:08:48;103747.97;;;14.34;61.04
53960;BME280;39866;48.638;-2.020;2023-02-10T10:11:37;103745.31;;;14.44;60.51
53960;BME280;39866;48.638;-2.020;2023-02-10T10:14:04;103744.47;;;14.51;60.58
53960;BME280;39866;48.638;-2.020;2023-02-10T10:30:17;103757.00;;;14.64;58.71
53960;BME280;39866;48.638;-2.020;2023-02-10T10:32:55;103761.50;;;14.68;58.01
53960;BME280;39866;48.638;-2.020;2023-02-10T10:35:32;103758.81;;;14.64;57.76
53960;BME280;39866;48.638;-2.020;2023-02-10T10:38:10;103763.31;;;14.75;57.47
53960;BME280;39866;48.638;-2.020;2023-02-10T10:40:37;103761.50;;;14.80;57.43
53960;BME280;39866;48.638;-2.020;2023-02-10T10:43:02;103770.47;;;14.82;57.02
53960;BME280;39866;48.638;-2.020;2023-02-10T10:45:44;103764.22;;;14.82;56.40
53960;BME280;39866;48.638;-2.020;2023-02-10T10:48:14;103763.31;;;14.89;56.21
53960;BME280;39866;48.638;-2.020;2023-02-10T10:50:40;103766.00;;;14.94;56.03
53960;BME280;39866;48.638;-2.020;2023-02-10T10:53:14;103756.19;;;14.96;55.82
53960;BME280;39866;48.638;-2.020;2023-02-10T10:55:43;103755.28;;;14.97;55.91
53960;BME280;39866;48.638;-2.020;2023-02-10T11:00:56;103763.31;;;15.09;55.04
53960;BME280;39866;48.638;-2.020;2023-02-10T11:03:22;103767.81;;;15.08;55.21
53960;BME280;39866;48.638;-2.020;2023-02-10T11:06:13;103762.44;;;15.08;54.89
53960;BME280;39866;48.638;-2.020;2023-02-10T11:08:51;103761.56;;;15.11;54.42
53960;BME280;39866;48.638;-2.020;2023-02-10T11:11:17;103757.06;;;15.18;53.60
53960;BME280;39866;48.638;-2.020;2023-02-10T11:13:52;103756.19;;;15.16;53.82
53960;BME280;39866;48.638;-2.020;2023-02-10T11:16:19;103747.22;;;15.21;53.66
53960;BME280;39866;48.638;-2.020;2023-02-10T11:18:57;103742.75;;;15.29;53.66
53960;BME280;39866;48.638;-2.020;2023-02-10T11:21:41;103742.75;;;15.25;53.96
53960;BME280;39866;48.638;-2.020;2023-02-10T11:24:19;103743.66;;;15.27;53.31
53960;BME280;39866;48.638;-2.020;2023-02-10T11:29:20;103739.19;;;15.32;53.03
53960;BME280;39866;48.638;-2.020;2023-02-10T11:31:45;103741.84;;;15.30;53.16
53960;BME280;39866;48.638;-2.020;2023-02-10T11:34:56;103745.44;;;15.35;52.80
53960;BME280;39866;48.638;-2.020;2023-02-10T11:37:12;103725.72;;;15.38;52.72
53960;BME280;39866;48.638;-2.020;2023-02-10T11:39:40;103733.78;;;15.38;53.03
53960;BME280;39866;48.638;-2.020;2023-02-10T11:42:09;103740.03;;;15.49;53.00
53960;BME280;39866;48.638;-2.020;2023-02-10T11:44:35;103733.78;;;15.49;53.16
53960;BME280;39866;48.638;-2.020;2023-02-10T11:47:03;103730.19;;;15.50;52.99
53960;BME280;39866;48.638;-2.020;2023-02-10T11:49:31;103724.81;;;15.50;52.67
53960;BME280;39866;48.638;-2.020;2023-02-10T11:51:59;103733.75;;;15.63;52.13
53960;BME280;39866;48.638;-2.020;2023-02-10T11:54:26;103731.06;;;15.55;52.21
53960;BME280;39866;48.638;-2.020;2023-02-10T11:57:21;103723.94;;;15.37;51.80
53960;BME280;39866;48.638;-2.020;2023-02-10T12:00:15;103725.72;;;15.46;51.17
53960;BME280;39866;48.638;-2.020;2023-02-10T12:05:50;103726.59;;;15.61;50.62
53960;BME280;39866;48.638;-2.020;2023-02-10T12:11:08;103718.53;;;15.51;50.64
53960;BME280;39866;48.638;-2.020;2023-02-10T12:21:32;103718.59;;;15.13;47.88
53960;BME280;39866;48.638;-2.020;2023-02-10T12:26:50;103721.28;;;14.76;47.63
53960;BME280;39866;48.638;-2.020;2023-02-10T12:33:09;103720.41;;;14.83;47.87
53960;BME280;39866;48.638;-2.020;2023-02-10T12:45:57;103713.00;;;13.98;51.51
53960;BME280;39866;48.638;-2.020;2023-02-10T12:48:33;103708.59;;;14.15;51.06
53960;BME280;39866;48.638;-2.020;2023-02-10T12:51:16;103705.09;;;14.48;49.25
53960;BME280;39866;48.638;-2.020;2023-02-10T12:53:48;103710.53;;;14.64;49.64
53960;BME280;39866;48.638;-2.020;2023-02-10T12:59:34;103709.56;;;14.37;51.67
53960;BME280;39866;48.638;-2.020;2023-02-10T13:02:10;103718.44;;;14.28;52.10
53960;BME280;39866;48.638;-2.020;2023-02-10T13:04:41;103705.91;;;14.18;52.52
53960;BME280;39866;48.638;-2.020;2023-02-10T13:07:36;103712.22;;;14.31;52.54
53960;BME280;39866;48.638;-2.020;2023-02-10T13:12:50;103697.00;;;14.28;53.29
53960;BME280;39866;48.638;-2.020;2023-02-10T13:15:37;103695.28;;;14.49;53.03
53960;BME280;39866;48.638;-2.020;2023-02-10T13:18:24;103689.91;;;14.44;52.60
53960;BME280;39866;48.638;-2.020;2023-02-10T13:23:45;103690.84;;;14.57;52.28
53960;BME280;39866;48.638;-2.020;2023-02-10T13:34:50;103687.28;;;15.24;51.31
53960;BME280;39866;48.638;-2.020;2023-02-10T13:37:39;103685.50;;;15.01;51.84
53960;BME280;39866;48.638;-2.020;2023-02-10T13:40:51;103690.88;;;15.03;51.51
53960;BME280;39866;48.638;-2.020;2023-02-10T13:43:34;103693.56;;;15.09;51.19
53960;BME280;39866;48.638;-2.020;2023-02-10T13:46:01;103686.41;;;15.00;51.91
53960;BME280;39866;48.638;-2.020;2023-02-10T13:48:29;103681.94;;;15.08;51.41
53960;BME280;39866;48.638;-2.020;2023-02-10T13:50:58;103695.38;;;14.95;50.99
53960;BME280;39866;48.638;-2.020;2023-02-10T13:58:51;103680.13;;;15.17;49.69
53960;BME280;39866;48.638;-2.020;2023-02-10T14:04:07;103667.63;;;15.06;49.32
53960;BME280;39866;48.638;-2.020;2023-02-10T14:06:51;103667.59;;;15.26;49.33
53960;BME280;39866;48.638;-2.020;2023-02-10T14:09:21;103672.97;;;15.17;49.47
53960;BME280;39866;48.638;-2.020;2023-02-10T14:11:48;103671.16;;;15.28;48.93
53960;BME280;39866;48.638;-2.020;2023-02-10T14:14:36;103663.13;;;15.16;49.35
53960;BME280;39866;48.638;-2.020;2023-02-10T14:17:06;103670.28;;;15.35;48.61
53960;BME280;39866;48.638;-2.020;2023-02-10T14:19:37;103662.22;;;15.26;48.59
53960;BME280;39866;48.638;-2.020;2023-02-10T14:22:04;103664.06;;;15.07;48.08
53960;BME280;39866;48.638;-2.020;2023-02-10T14:24:35;103664.88;;;15.34;47.83
53960;BME280;39866;48.638;-2.020;2023-02-10T14:27:03;103669.34;;;15.52;47.46
53960;BME280;39866;48.638;-2.020;2023-02-10T14:29:33;103668.44;;;15.53;47.57